sensor_id;sensor_type;location;lat;lon;timestamp;pressure;altitude;pressure_sealevel;temperature;humidity
10718;BME280;13513;42.700;23.124;2023-10-08T00:00:50;93411.43;;;14.07;48.87
10718;BME280;13513;42.700;23.124;2023-10-08T00:03:22;93405.84;;;14.06;48.62
10718;BME280;13513;42.700;23.124;2023-10-08T00:05:51;93397.89;;;14.09;49.71
10718;BME280;13513;42.700;23.124;2023-10-08T00:08:18;93403.16;;;14.01;49.91
10718;BME280;13513;42.700;23.124;2023-10-08T00:10:46;93399.56;;;13.83;50.26
10718;BME280;13513;42.700;23.124;2023-10-08T00:13:14;93396.69;;;13.90;50.19
10718;BME280;13513;42.700;23.124;2023-10-08T00:15:43;93397.12;;;13.77;51.21
10718;BME280;13513;42.700;23.124;2023-10-08T00:18:13;93399.81;;;13.53;52.55
10718;BME280;13513;42.700;23.124;2023-10-08T00:20:41;93398.06;;;13.34;52.97
10718;BME280;13513;42.700;23.124;2023-10-08T00:23:10;93392.45;;;13.28;53.00
10718;BME280;13513;42.700;23.124;2023-10-08T00:25:38;93392.37;;;13.23;53.16
10718;BME280;13513;42.700;23.124;2023-10-08T00:28:08;93378.13;;;13.32;53.44
10718;BME280;13513;42.700;23.124;2023-10-08T00:30:40;93383.23;;;13.38;53.02
10718;BME280;13513;42.700;23.124;2023-10-08T00:33:09;93376.94;;;13.44;54.35
10718;BME280;13513;42.700;23.124;2023-10-08T00:35:39;93371.92;;;13.19;55.74
10718;BME280;13513;42.700;23.124;2023-10-08T00:38:09;93367.02;;;13.08;56.29
10718;BME280;13513;42.700;23.124;2023-10-08T00:40:38;93363.77;;;13.28;54.33
10718;BME280;13513;42.700;23.124;2023-10-08T00:43:06;93361.16;;;13.64;52.75
10718;BME280;13513;42.700;23.124;2023-10-08T00:45:40;93363.55;;;13.97;51.63
10718;BME280;13513;42.700;23.124;2023-10-08T00:48:06;93362.00;;;14.06;52.40
10718;BME280;13513;42.700;23.124;2023-10-08T00:50:33;93362.59;;;14.13;52.17
10718;BME280;13513;42.700;23.124;2023-10-08T00:53:03;93372.13;;;14.09;53.14
10718;BME280;13513;42.700;23.124;2023-10-08T00:55:32;93360.61;;;13.99;53.24
10718;BME280;13513;42.700;23.124;2023-10-08T00:58:01;93358.16;;;13.90;53.35
10718;BME280;13513;42.700;23.124;2023-10-08T01:00:30;93352.85;;;13.90;53.35
10718;BME280;13513;42.700;23.124;2023-10-08T01:03:01;93349.20;;;13.98;52.10
10718;BME280;13513;42.700;23.124;2023-10-08T01:05:28;93345.31;;;14.13;51.80
10718;BME280;13513;42.700;23.124;2023-10-08T01:08:14;93349.73;;;14.03;53.50
10718;BME280;13513;42.700;23.124;2023-10-08T01:10:46;93355.75;;;13.86;55.05
10718;BME280;13513;42.700;23.124;2023-10-08T01:13:13;93353.49;;;13.70;55.22
10718;BME280;13513;42.700;23.124;2023-10-08T01:15:46;93342.89;;;13.36;56.04
10718;BME280;13513;42.700;23.124;2023-10-08T01:18:15;93344.27;;;13.44;53.09
10718;BME280;13513;42.700;23.124;2023-10-08T01:20:44;93339.34;;;13.60;52.25
10718;BME280;13513;42.700;23.124;2023-10-08T01:23:16;93341.22;;;13.59;54.33
10718;BME280;13513;42.700;23.124;2023-10-08T01:25:46;93343.69;;;13.39;55.34
10718;BME280;13513;42.700;23.124;2023-10-08T01:28:21;93346.52;;;13.28;55.55
10718;BME280;13513;42.700;23.124;2023-10-08T01:30:56;93344.30;;;13.17;56.81
10718;BME280;13513;42.700;23.124;2023-10-08T01:33:27;93346.62;;;13.11;57.17
10718;BME280;13513;42.700;23.124;2023-10-08T01:35:55;93349.86;;;12.92;58.79
10718;BME280;13513;42.700;23.124;2023-10-08T01:38:33;93349.47;;;12.81;59.52
10718;BME280;13513;42.700;23.124;2023-10-08T01:41:00;93353.52;;;12.64;59.85
10718;BME280;13513;42.700;23.124;2023-10-08T01:43:29;93353.39;;;12.54;61.21
10718;BME280;13513;42.700;23.124;2023-10-08T01:45:57;93356.02;;;12.52;61.41
10718;BME280;13513;42.700;23.124;2023-10-08T01:48:24;93357.09;;;12.32;60.91
10718;BME280;13513;42.700;23.124;2023-10-08T01:50:55;93351.71;;;12.24;60.83
10718;BME280;13513;42.700;23.124;2023-10-08T01:53:25;93345.20;;;12.34;57.52
10718;BME280;13513;42.700;23.124;2023-10-08T01:55:53;93351.50;;;12.50;58.03
10718;BME280;13513;42.700;23.124;2023-10-08T01:58:22;93348.68;;;12.59;58.24
10718;BME280;13513;42.700;23.124;2023-10-08T02:00:49;93340.31;;;12.69;56.90
10718;BME280;13513;42.700;23.124;2023-10-08T02:03:18;93342.66;;;12.90;56.21
10718;BME280;13513;42.700;23.124;2023-10-08T02:05:47;93341.58;;;12.88;57.77
10718;BME280;13513;42.700;23.124;2023-10-08T02:08:15;93342.50;;;12.75;58.63
10718;BME280;13513;42.700;23.124;2023-10-08T02:10:44;93347.06;;;12.55;59.39
10718;BME280;13513;42.700;23.124;2023-10-08T02:13:14;93342.49;;;12.51;58.90
10718;BME280;13513;42.700;23.124;2023-10-08T02:15:51;93335.48;;;12.42;59.65
10718;BME280;13513;42.700;23.124;2023-10-08T02:18:18;93333.38;;;12.42;58.01
10718;BME280;13513;42.700;23.124;2023-10-08T02:20:46;93340.30;;;12.45;58.37
10718;BME280;13513;42.700;23.124;2023-10-08T02:23:14;93334.68;;;12.87;52.80
10718;BME280;13513;42.700;23.124;2023-10-08T02:25:44;93337.25;;;13.01;56.47
10718;BME280;13513;42.700;23.124;2023-10-08T02:28:11;93333.40;;;12.92;59.02
10718;BME280;13513;42.700;23.124;2023-10-08T02:30:41;93324.95;;;12.69;58.16
10718;BME280;13513;42.700;23.124;2023-10-08T02:33:09;93331.97;;;12.58;57.04
10718;BME280;13513;42.700;23.124;2023-10-08T02:35:43;93328.55;;;12.60;58.78
10718;BME280;13513;42.700;23.124;2023-10-08T02:38:14;93323.37;;;12.49;56.77
10718;BME280;13513;42.700;23.124;2023-10-08T02:40:43;93326.05;;;12.73;53.33
10718;BME280;13513;42.700;23.124;2023-10-08T02:43:15;93328.86;;;13.12;51.05
10718;BME280;13513;42.700;23.124;2023-10-08T02:45:43;93322.97;;;13.34;51.12
10718;BME280;13513;42.700;23.124;2023-10-08T02:48:13;93325.48;;;13.53;49.76
10718;BME280;13513;42.700;23.124;2023-10-08T02:50:42;93324.56;;;13.69;48.70
10718;BME280;13513;42.700;23.124;2023-10-08T02:53:12;93333.06;;;13.71;52.08
10718;BME280;13513;42.700;23.124;2023-10-08T02:55:41;93329.02;;;13.61;51.71
10718;BME280;13513;42.700;23.124;2023-10-08T02:58:15;93333.58;;;13.34;53.37
10718;BME280;13513;42.700;23.124;2023-10-08T03:00:46;93330.59;;;13.28;51.61
10718;BME280;13513;42.700;23.124;2023-10-08T03:03:15;93336.00;;;13.38;50.06
10718;BME280;13513;42.700;23.124;2023-10-08T03:05:53;93339.97;;;13.72;49.57
10718;BME280;13513;42.700;23.124;2023-10-08T03:08:23;93332.78;;;13.67;51.53
10718;BME280;13513;42.700;23.124;2023-10-08T03:10:51;93337.52;;;13.63;51.02
10718;BME280;13513;42.700;23.124;2023-10-08T03:13:21;93331.85;;;13.52;52.47
10718;BME280;13513;42.700;23.124;2023-10-08T03:15:49;93331.55;;;13.46;51.85
10718;BME280;13513;42.700;23.124;2023-10-08T03:18:28;93327.48;;;13.36;52.94
10718;BME280;13513;42.700;23.124;2023-10-08T03:20:57;93329.41;;;13.45;51.39
10718;BME280;13513;42.700;23.124;2023-10-08T03:23:26;93327.84;;;13.47;51.79
10718;BME280;13513;42.700;23.124;2023-10-08T03:26:04;93328.08;;;13.43;51.59
10718;BME280;13513;42.700;23.124;2023-10-08T03:28:38;93323.73;;;13.32;53.13
10718;BME280;13513;42.700;23.124;2023-10-08T03:31:07;93319.88;;;13.47;51.17
10718;BME280;13513;42.700;23.124;2023-10-08T03:33:43;93317.16;;;13.76;50.45
10718;BME280;13513;42.700;23.124;2023-10-08T03:36:12;93316.25;;;13.99;49.46
10718;BME280;13513;42.700;23.124;2023-10-08T03:38:49;93311.85;;;14.20;48.67
10718;BME280;13513;42.700;23.124;2023-10-08T03:41:24;93316.53;;;14.47;48.10
10718;BME280;13513;42.700;23.124;2023-10-08T03:43:56;93310.20;;;14.60;47.74
10718;BME280;13513;42.700;23.124;2023-10-08T03:46:32;93308.61;;;14.62;48.28
10718;BME280;13513;42.700;23.124;2023-10-08T03:49:08;93299.83;;;14.61;48.09
10718;BME280;13513;42.700;23.124;2023-10-08T03:51:43;93295.00;;;14.48;48.81
10718;BME280;13513;42.700;23.124;2023-10-08T03:54:11;93299.94;;;14.25;50.90
10718;BME280;13513;42.700;23.124;2023-10-08T03:56:44;93293.42;;;14.01;50.48
10718;BME280;13513;42.700;23.124;2023-10-08T03:59:15;93292.84;;;13.96;50.27
10718;BME280;13513;42.700;23.124;2023-10-08T04:01:44;93298.16;;;13.96;50.96
10718;BME280;13513;42.700;23.124;2023-10-08T04:04:12;93294.48;;;14.02;49.74
10718;BME280;13513;42.700;23.124;2023-10-08T04:06:41;93291.36;;;14.15;49.43
10718;BME280;13513;42.700;23.124;2023-10-08T04:09:19;93292.55;;;14.34;48.47
10718;BME280;13513;42.700;23.124;2023-10-08T04:11:48;93289.18;;;14.59;48.13
10718;BME280;13513;42.700;23.124;2023-10-08T04:14:18;93291.88;;;14.71;47.85
10718;BME280;13513;42.700;23.124;2023-10-08T04:16:46;93290.86;;;14.85;47.49
10718;BME280;13513;42.700;23.124;2023-10-08T04:19:15;93293.00;;;14.95;47.46
10718;BME280;13513;42.700;23.124;2023-10-08T04:21:45;93298.35;;;15.05;47.33
10718;BME280;13513;42.700;23.124;2023-10-08T04:24:14;93291.70;;;15.13;47.17
10718;BME280;13513;42.700;23.124;2023-10-08T04:26:42;93290.08;;;14.97;48.60
10718;BME280;13513;42.700;23.124;2023-10-08T04:29:10;93288.16;;;14.70;49.16
10718;BME280;13513;42.700;23.124;2023-10-08T04:31:39;93288.05;;;14.45;50.16
10718;BME280;13513;42.700;23.124;2023-10-08T04:34:08;93286.59;;;14.15;50.47
10718;BME280;13513;42.700;23.124;2023-10-08T04:36:46;93283.98;;;14.22;49.71
10718;BME280;13513;42.700;23.124;2023-10-08T04:39:15;93281.96;;;14.47;48.81
10718;BME280;13513;42.700;23.124;2023-10-08T04:41:44;93277.00;;;14.78;47.54
10718;BME280;13513;42.700;23.124;2023-10-08T04:44:13;93279.72;;;15.15;46.22
10718;BME280;13513;42.700;23.124;2023-10-08T04:46:43;93284.30;;;15.40;45.09
10718;BME280;13513;42.700;23.124;2023-10-08T04:49:16;93289.34;;;15.74;44.62
10718;BME280;13513;42.700;23.124;2023-10-08T04:52:03;93293.28;;;15.99;44.10
10718;BME280;13513;42.700;23.124;2023-10-08T04:54:44;93293.53;;;16.18;42.93
10718;BME280;13513;42.700;23.124;2023-10-08T04:57:21;93284.91;;;16.48;41.77
10718;BME280;13513;42.700;23.124;2023-10-08T04:59:49;93286.67;;;16.73;41.38
10718;BME280;13513;42.700;23.124;2023-10-08T05:02:17;93283.31;;;17.01;41.07
10718;BME280;13513;42.700;23.124;2023-10-08T05:04:50;93278.74;;;17.06;40.79
10718;BME280;13513;42.700;23.124;2023-10-08T05:07:20;93280.00;;;17.19;40.87
10718;BME280;13513;42.700;23.124;2023-10-08T05:09:55;93285.77;;;17.33;41.22
10718;BME280;13513;42.700;23.124;2023-10-08T05:12:36;93284.39;;;17.38;41.70
10718;BME280;13513;42.700;23.124;2023-10-08T05:15:14;93294.45;;;17.56;42.36
10718;BME280;13513;42.700;23.124;2023-10-08T05:17:45;93300.41;;;17.79;41.70
10718;BME280;13513;42.700;23.124;2023-10-08T05:20:15;93300.35;;;17.84;41.72
10718;BME280;13513;42.700;23.124;2023-10-08T05:23:00;93294.56;;;18.03;40.07
10718;BME280;13513;42.700;23.124;2023-10-08T05:25:35;93295.64;;;18.02;41.17
10718;BME280;13513;42.700;23.124;2023-10-08T05:28:05;93297.52;;;18.02;41.10
10718;BME280;13513;42.700;23.124;2023-10-08T05:30:35;93291.86;;;18.08;40.95
10718;BME280;13513;42.700;23.124;2023-10-08T05:33:08;93284.95;;;18.28;40.46
10718;BME280;13513;42.700;23.124;2023-10-08T05:35:56;93290.39;;;18.47;40.04
10718;BME280;13513;42.700;23.124;2023-10-08T05:38:25;93292.82;;;18.46;40.42
10718;BME280;13513;42.700;23.124;2023-10-08T05:41:03;93296.59;;;18.66;40.43
10718;BME280;13513;42.700;23.124;2023-10-08T05:43:36;93304.05;;;18.90;39.93
10718;BME280;13513;42.700;23.124;2023-10-08T05:46:10;93300.17;;;19.19;39.10
10718;BME280;13513;42.700;23.124;2023-10-08T05:48:54;93300.45;;;19.57;39.23
10718;BME280;13513;42.700;23.124;2023-10-08T05:51:31;93299.39;;;19.75;38.38
10718;BME280;13513;42.700;23.124;2023-10-08T05:57:01;93315.01;;;20.02;34.83
10718;BME280;13513;42.700;23.124;2023-10-08T05:59:44;93320.73;;;20.60;34.28
10718;BME280;13513;42.700;23.124;2023-10-08T06:02:27;93322.27;;;20.90;33.48
10718;BME280;13513;42.700;23.124;2023-10-08T06:05:04;93316.36;;;21.18;35.35
10718;BME280;13513;42.700;23.124;2023-10-08T06:07:45;93321.22;;;21.65;35.70
10718;BME280;13513;42.700;23.124;2023-10-08T06:10:15;93326.70;;;22.06;33.64
10718;BME280;13513;42.700;23.124;2023-10-08T06:13:07;93317.89;;;22.47;34.25
10718;BME280;13513;42.700;23.124;2023-10-08T06:15:52;93263.89;;;22.00;31.73
10718;BME280;13513;42.700;23.124;2023-10-08T06:18:26;93311.19;;;22.67;34.09
10718;BME280;13513;42.700;23.124;2023-10-08T06:23:27;93312.41;;;21.97;34.98
10718;BME280;13513;42.700;23.124;2023-10-08T06:25:57;93319.73;;;21.83;33.72
10718;BME280;13513;42.700;23.124;2023-10-08T06:28:27;93317.89;;;22.14;33.69
10718;BME280;13513;42.700;23.124;2023-10-08T06:30:55;93314.73;;;22.43;32.38
10718;BME280;13513;42.700;23.124;2023-10-08T06:33:23;93311.09;;;22.89;33.44
10718;BME280;13513;42.700;23.124;2023-10-08T06:35:53;93316.76;;;22.98;33.54
10718;BME280;13513;42.700;23.124;2023-10-08T06:38:31;93314.28;;;22.91;32.95
10718;BME280;13513;42.700;23.124;2023-10-08T06:41:00;93315.09;;;22.08;32.89
10718;BME280;13513;42.700;23.124;2023-10-08T06:43:29;93317.39;;;21.68;33.58
10718;BME280;13513;42.700;23.124;2023-10-08T06:45:56;93315.82;;;21.18;34.76
10718;BME280;13513;42.700;23.124;2023-10-08T06:48:26;93322.58;;;21.02;34.15
10718;BME280;13513;42.700;23.124;2023-10-08T06:50:56;93319.09;;;20.88;32.82
10718;BME280;13513;42.700;23.124;2023-10-08T06:53:24;93317.70;;;20.77;34.49
10718;BME280;13513;42.700;23.124;2023-10-08T06:55:52;93321.78;;;20.75;33.47
10718;BME280;13513;42.700;23.124;2023-10-08T06:58:21;93326.79;;;20.52;34.08
10718;BME280;13513;42.700;23.124;2023-10-08T07:00:49;93327.88;;;21.07;33.69
10718;BME280;13513;42.700;23.124;2023-10-08T07:03:17;93315.47;;;22.04;32.46
10718;BME280;13513;42.700;23.124;2023-10-08T07:05:47;93321.95;;;23.14;29.68
10718;BME280;13513;42.700;23.124;2023-10-08T07:08:23;93320.19;;;24.26;29.25
10718;BME280;13513;42.700;23.124;2023-10-08T07:10:51;93317.82;;;25.10;28.06
10718;BME280;13513;42.700;23.124;2023-10-08T07:13:21;93313.56;;;25.73;27.29
10718;BME280;13513;42.700;23.124;2023-10-08T07:15:52;93308.93;;;26.09;26.23
10718;BME280;13513;42.700;23.124;2023-10-08T07:18:19;93309.06;;;26.45;24.37
10718;BME280;13513;42.700;23.124;2023-10-08T07:20:53;93314.94;;;26.68;25.28
10718;BME280;13513;42.700;23.124;2023-10-08T07:23:27;93313.73;;;26.89;24.21
10718;BME280;13513;42.700;23.124;2023-10-08T07:26:03;93311.14;;;26.99;24.01
10718;BME280;13513;42.700;23.124;2023-10-08T07:28:42;93306.88;;;27.28;24.17
10718;BME280;13513;42.700;23.124;2023-10-08T07:31:18;93307.65;;;27.82;22.81
10718;BME280;13513;42.700;23.124;2023-10-08T07:33:50;93308.52;;;28.81;22.58
10718;BME280;13513;42.700;23.124;2023-10-08T07:36:20;93303.02;;;28.87;22.93
10718;BME280;13513;42.700;23.124;2023-10-08T07:38:47;93299.27;;;29.53;20.98
10718;BME280;13513;42.700;23.124;2023-10-08T07:41:15;93297.99;;;30.55;21.14
10718;BME280;13513;42.700;23.124;2023-10-08T07:43:42;93299.08;;;30.69;20.61
10718;BME280;13513;42.700;23.124;2023-10-08T07:46:10;93300.30;;;30.62;20.43
10718;BME280;13513;42.700;23.124;2023-10-08T07:48:39;93293.28;;;30.42;19.85
10718;BME280;13513;42.700;23.124;2023-10-08T07:51:08;93290.91;;;30.22;19.22
10718;BME280;13513;42.700;23.124;2023-10-08T07:53:36;93289.70;;;29.94;20.25
10718;BME280;13513;42.700;23.124;2023-10-08T07:56:08;93294.11;;;30.08;20.41
10718;BME280;13513;42.700;23.124;2023-10-08T07:58:37;93298.77;;;29.17;20.61
10718;BME280;13513;42.700;23.124;2023-10-08T08:01:07;93299.72;;;27.71;22.47
10718;BME280;13513;42.700;23.124;2023-10-08T08:03:36;93299.65;;;26.36;23.11
10718;BME280;13513;42.700;23.124;2023-10-08T08:06:05;93295.91;;;26.29;23.91
10718;BME280;13513;42.700;23.124;2023-10-08T08:08:33;93291.59;;;27.23;24.04
10718;BME280;13513;42.700;23.124;2023-10-08T08:11:05;93287.29;;;29.48;21.19
10718;BME280;13513;42.700;23.124;2023-10-08T08:13:41;93284.16;;;30.35;20.26
10718;BME280;13513;42.700;23.124;2023-10-08T08:16:10;93276.02;;;31.79;20.25
10718;BME280;13513;42.700;23.124;2023-10-08T08:18:45;93278.01;;;32.38;18.50
10718;BME280;13513;42.700;23.124;2023-10-08T08:21:13;93277.50;;;33.59;18.63
10718;BME280;13513;42.700;23.124;2023-10-08T08:23:46;93267.94;;;34.64;17.44
10718;BME280;13513;42.700;23.124;2023-10-08T08:26:23;93266.70;;;36.18;16.05
10718;BME280;13513;42.700;23.124;2023-10-08T08:28:54;93268.72;;;35.90;16.00
10718;BME280;13513;42.700;23.124;2023-10-08T08:31:24;93265.95;;;35.69;16.10
10718;BME280;13513;42.700;23.124;2023-10-08T08:33:56;93267.98;;;33.96;16.89
10718;BME280;13513;42.700;23.124;2023-10-08T08:36:24;93266.86;;;31.94;18.54
10718;BME280;13513;42.700;23.124;2023-10-08T08:38:52;93269.63;;;32.57;18.99
10718;BME280;13513;42.700;23.124;2023-10-08T08:41:21;93266.95;;;34.66;18.08
10718;BME280;13513;42.700;23.124;2023-10-08T08:43:51;93270.31;;;36.59;16.74
10718;BME280;13513;42.700;23.124;2023-10-08T08:46:34;93264.66;;;36.43;16.42
10718;BME280;13513;42.700;23.124;2023-10-08T08:49:07;93266.20;;;34.76;17.78
10718;BME280;13513;42.700;23.124;2023-10-08T08:51:32;93265.98;;;32.03;18.98
10718;BME280;13513;42.700;23.124;2023-10-08T08:54:02;93257.11;;;31.09;20.53
10718;BME280;13513;42.700;23.124;2023-10-08T08:56:37;93259.84;;;29.72;20.81
10718;BME280;13513;42.700;23.124;2023-10-08T08:59:05;93258.00;;;28.58;22.31
10718;BME280;13513;42.700;23.124;2023-10-08T09:01:33;93254.71;;;27.58;23.22
10718;BME280;13513;42.700;23.124;2023-10-08T09:04:03;93259.32;;;26.62;25.18
10718;BME280;13513;42.700;23.124;2023-10-08T09:06:36;93254.16;;;26.03;25.74
10718;BME280;13513;42.700;23.124;2023-10-08T09:09:07;93254.05;;;25.65;26.47
10718;BME280;13513;42.700;23.124;2023-10-08T09:11:42;93243.20;;;25.38;26.71
10718;BME280;13513;42.700;23.124;2023-10-08T09:14:09;93245.77;;;24.91;27.42
10718;BME280;13513;42.700;23.124;2023-10-08T09:16:37;93248.91;;;24.56;27.47
10718;BME280;13513;42.700;23.124;2023-10-08T09:19:04;93251.18;;;24.45;27.26
10718;BME280;13513;42.700;23.124;2023-10-08T09:21:33;93245.05;;;24.51;28.35
10718;BME280;13513;42.700;23.124;2023-10-08T09:24:02;93246.83;;;24.38;28.15
10718;BME280;13513;42.700;23.124;2023-10-08T09:26:31;93242.65;;;24.81;28.53
10718;BME280;13513;42.700;23.124;2023-10-08T09:28:59;93238.64;;;26.24;27.04
10718;BME280;13513;42.700;23.124;2023-10-08T09:31:28;93241.34;;;28.32;23.51
10718;BME280;13513;42.700;23.124;2023-10-08T09:33:58;93232.90;;;28.22;23.16
10718;BME280;13513;42.700;23.124;2023-10-08T09:36:25;93230.70;;;27.54;24.37
10718;BME280;13513;42.700;23.124;2023-10-08T09:39:01;93233.48;;;27.12;24.09
10718;BME280;13513;42.700;23.124;2023-10-08T09:41:33;93231.00;;;27.71;24.44
10718;BME280;13513;42.700;23.124;2023-10-08T09:44:02;93228.28;;;27.77;24.08
10718;BME280;13513;42.700;23.124;2023-10-08T09:46:32;93226.84;;;27.67;24.83
10718;BME280;13513;42.700;23.124;2023-10-08T09:49:05;93216.59;;;28.65;24.67
10718;BME280;13513;42.700;23.124;2023-10-08T09:51:37;93219.92;;;28.89;24.16
10718;BME280;13513;42.700;23.124;2023-10-08T09:54:15;93218.88;;;29.09;23.29
10718;BME280;13513;42.700;23.124;2023-10-08T09:56:40;93221.22;;;29.01;23.71
10718;BME280;13513;42.700;23.124;2023-10-08T09:59:10;93211.41;;;29.06;24.15
10718;BME280;13513;42.700;23.124;2023-10-08T10:01:39;93211.13;;;30.57;21.23
10718;BME280;13513;42.700;23.124;2023-10-08T10:04:11;93213.14;;;32.95;19.83
10718;BME280;13513;42.700;23.124;2023-10-08T10:06:41;93209.04;;;34.48;17.84
10718;BME280;13513;42.700;23.124;2023-10-08T10:09:19;93207.02;;;35.24;17.62
10718;BME280;13513;42.700;23.124;2023-10-08T10:11:47;93206.88;;;36.76;17.00
10718;BME280;13513;42.700;23.124;2023-10-08T10:14:15;93197.02;;;38.21;16.07
10718;BME280;13513;42.700;23.124;2023-10-08T10:16:52;93204.08;;;39.16;14.60
10718;BME280;13513;42.700;23.124;2023-10-08T10:19:20;93197.95;;;38.41;15.18
10718;BME280;13513;42.700;23.124;2023-10-08T10:21:49;93189.20;;;37.94;15.55
10718;BME280;13513;42.700;23.124;2023-10-08T10:24:33;93189.16;;;35.56;16.89
10718;BME280;13513;42.700;23.124;2023-10-08T10:27:12;93185.56;;;33.79;18.45
10718;BME280;13513;42.700;23.124;2023-10-08T10:29:42;93182.58;;;32.03;20.67
10718;BME280;13513;42.700;23.124;2023-10-08T10:32:13;93169.55;;;30.54;21.27
10718;BME280;13513;42.700;23.124;2023-10-08T10:34:45;93175.67;;;29.08;22.74
10718;BME280;13513;42.700;23.124;2023-10-08T10:37:14;93163.27;;;29.26;23.97
10718;BME280;13513;42.700;23.124;2023-10-08T10:39:55;93158.94;;;29.25;23.17
10718;BME280;13513;42.700;23.124;2023-10-08T10:42:27;93173.66;;;28.43;24.12
10718;BME280;13513;42.700;23.124;2023-10-08T10:44:55;93165.52;;;27.66;25.03
10718;BME280;13513;42.700;23.124;2023-10-08T10:47:24;93166.45;;;26.89;25.86
10718;BME280;13513;42.700;23.124;2023-10-08T10:49:56;93169.59;;;26.48;26.35
10718;BME280;13513;42.700;23.124;2023-10-08T10:52:28;93162.64;;;26.09;27.09
10718;BME280;13513;42.700;23.124;2023-10-08T10:55:03;93153.36;;;25.98;27.44
10718;BME280;13513;42.700;23.124;2023-10-08T10:57:35;93150.58;;;26.24;27.88
10718;BME280;13513;42.700;23.124;2023-10-08T11:00:05;93149.50;;;28.47;25.71
10718;BME280;13513;42.700;23.124;2023-10-08T11:02:50;93142.91;;;30.57;22.94
10718;BME280;13513;42.700;23.124;2023-10-08T11:05:18;93144.45;;;32.01;21.39
10718;BME280;13513;42.700;23.124;2023-10-08T11:07:50;93141.78;;;32.04;21.14
10718;BME280;13513;42.700;23.124;2023-10-08T11:10:19;93134.37;;;32.41;21.44
10718;BME280;13513;42.700;23.124;2023-10-08T11:12:48;93136.08;;;33.92;20.42
10718;BME280;13513;42.700;23.124;2023-10-08T11:15:17;93132.42;;;34.94;19.18
10718;BME280;13513;42.700;23.124;2023-10-08T11:17:45;93133.26;;;34.26;19.11
10718;BME280;13513;42.700;23.124;2023-10-08T11:20:28;93136.84;;;32.97;20.46
10718;BME280;13513;42.700;23.124;2023-10-08T11:22:57;93130.64;;;31.87;22.10
10718;BME280;13513;42.700;23.124;2023-10-08T11:25:26;93128.11;;;31.58;22.44
10718;BME280;13513;42.700;23.124;2023-10-08T11:27:57;93122.92;;;31.79;22.44
10718;BME280;13513;42.700;23.124;2023-10-08T11:30:32;93129.97;;;31.67;22.30
10718;BME280;13513;42.700;23.124;2023-10-08T11:33:01;93117.66;;;30.86;23.35
10718;BME280;13513;42.700;23.124;2023-10-08T11:35:30;93116.91;;;29.98;23.78
10718;BME280;13513;42.700;23.124;2023-10-08T11:38:00;93126.87;;;29.43;24.13
10718;BME280;13513;42.700;23.124;2023-10-08T11:40:29;93121.13;;;28.79;25.44
10718;BME280;13513;42.700;23.124;2023-10-08T11:42:58;93126.23;;;27.97;26.45
10718;BME280;13513;42.700;23.124;2023-10-08T11:45:26;93131.33;;;27.65;26.68
10718;BME280;13513;42.700;23.124;2023-10-08T11:47:55;93124.59;;;27.26;26.35
10718;BME280;13513;42.700;23.124;2023-10-08T11:50:26;93121.45;;;26.39;27.86
10718;BME280;13513;42.700;23.124;2023-10-08T11:53:02;93129.80;;;26.10;28.44
10718;BME280;13513;42.700;23.124;2023-10-08T11:55:30;93127.43;;;25.82;29.17
10718;BME280;13513;42.700;23.124;2023-10-08T11:58:00;93127.73;;;25.95;29.54
10718;BME280;13513;42.700;23.124;2023-10-08T12:00:29;93125.55;;;26.63;28.37
10718;BME280;13513;42.700;23.124;2023-10-08T12:02:57;93128.79;;;27.05;27.62
10718;BME280;13513;42.700;23.124;2023-10-08T12:05:24;93119.20;;;26.96;27.81
10718;BME280;13513;42.700;23.124;2023-10-08T12:07:53;93118.89;;;26.67;27.84
10718;BME280;13513;42.700;23.124;2023-10-08T12:10:22;93119.44;;;26.42;28.53
10718;BME280;13513;42.700;23.124;2023-10-08T12:12:51;93111.20;;;26.51;28.16
10718;BME280;13513;42.700;23.124;2023-10-08T12:15:20;93109.05;;;26.38;28.21
10718;BME280;13513;42.700;23.124;2023-10-08T12:17:48;93107.34;;;26.52;29.31
10718;BME280;13513;42.700;23.124;2023-10-08T12:20:41;93104.88;;;26.71;28.72
10718;BME280;13513;42.700;23.124;2023-10-08T12:23:13;93104.06;;;26.95;28.59
10718;BME280;13513;42.700;23.124;2023-10-08T12:25:53;93108.66;;;27.06;28.08
10718;BME280;13513;42.700;23.124;2023-10-08T12:28:22;93115.99;;;27.12;29.30
10718;BME280;13513;42.700;23.124;2023-10-08T12:30:56;93101.86;;;27.24;28.12
10718;BME280;13513;42.700;23.124;2023-10-08T12:33:23;93111.75;;;27.38;28.85
10718;BME280;13513;42.700;23.124;2023-10-08T12:35:52;93108.30;;;27.53;27.84
10718;BME280;13513;42.700;23.124;2023-10-08T12:38:22;93111.22;;;27.60;27.34
10718;BME280;13513;42.700;23.124;2023-10-08T12:40:50;93105.38;;;27.74;27.28
10718;BME280;13513;42.700;23.124;2023-10-08T12:43:22;93099.56;;;27.87;26.96
10718;BME280;13513;42.700;23.124;2023-10-08T12:45:52;93095.45;;;27.72;27.16
10718;BME280;13513;42.700;23.124;2023-10-08T12:48:21;93100.89;;;27.38;27.70
10718;BME280;13513;42.700;23.124;2023-10-08T12:50:49;93098.61;;;27.07;28.37
10718;BME280;13513;42.700;23.124;2023-10-08T12:53:26;93098.00;;;26.68;28.40
10718;BME280;13513;42.700;23.124;2023-10-08T12:56:08;93095.83;;;26.55;29.04
10718;BME280;13513;42.700;23.124;2023-10-08T12:58:37;93091.30;;;26.53;29.64
10718;BME280;13513;42.700;23.124;2023-10-08T13:01:18;93079.22;;;26.81;29.54
10718;BME280;13513;42.700;23.124;2023-10-08T13:03:46;93078.20;;;27.31;28.81
10718;BME280;13513;42.700;23.124;2023-10-08T13:06:20;93079.67;;;27.83;28.47
10718;BME280;13513;42.700;23.124;2023-10-08T13:08:52;93078.33;;;28.14;27.70
10718;BME280;13513;42.700;23.124;2023-10-08T13:11:20;93069.88;;;28.56;26.60
10718;BME280;13513;42.700;23.124;2023-10-08T13:13:56;93065.50;;;29.21;26.41
10718;BME280;13513;42.700;23.124;2023-10-08T13:16:25;93069.94;;;29.86;25.63